AerodromSadržaj METAR izveštaja
LYBEMETAR LYBE 061330Z 10016KT CAVOK 17/M07 Q1031 NOSIG=
LYBTMETAR LYBT 061330Z 08016KT 040V120 CAVOK 17/M08 Q1031 NOSIG=
LYKVMETAR LYKV 061330Z 08012KT 040V110 CAVOK 16/M08 Q1029 NOSIG=
LYNIMETAR LYNI 061330Z 04013KT 010V080 CAVOK 16/M09 Q1029 NOSIG=
LYVRMETAR LYVR 061330Z 13011KT 100V170 CAVOK 18/M11 Q1031 NOSIG=
LYUZMETAR LYUZ 061330Z AUTO 08010KT 030V140 CAVOK 11/M08 Q1028=
LYPGMETAR LYPG 061330Z 17006KT 150V220 CAVOK 20/M04 Q1023 NOSIG=
LYTVMETAR LYTV 061330Z 23008KT 190V270 CAVOK 18/07 Q1023 NOSIG=

Podaci učitani u: 2020-04-06 13:42:35 UTC

METAR, TAF, AIRMET, GAMET, SIGMET

Važna napomena: MET infоrmаciје nа оvim web strаnicаmа imајu infоrmаtivni kаrаktеr, nаmenjene su isključivo vаzduhоplоvnim kоrisnicima, nе smејu sе kоristiti zа bilо kоје kоmеrciјаlnе svrhе, i nе zаmеnjuјu dоkumеntаciјu zа lеt.